Hercílio Luz International Airport
SBFL : rendu visible

Aérodrome :











RETROUVEZ-NOUS SUR...

 
LOGIN :

S'inscrire | Disclaimer

   EN    FR    IT 

 









Légende :    VFR   VFR Marginal   IFR   IFR Intensif   IFR Très Intensif
Visi : 
Plafond : 
>= 8 km
>= 3000ft
5 à 8 km
1000 à 3000 ft
1500m à 5 km
500 à 1000 ft
800 à 1500m
200 à 500 ft
< 800m
< 200 ft
Symboles :   Orages  Brouillard  Fortes neiges  Fortes précipitations  Vent > 20 kt






- Altitude de l'aérodrome : 16 ft
- Code IATA : FLN


SBFL - Hercílio Luz International

DERNIER METAR :
  • 040800Z 27006KT CAVOK 19/13 Q1010

METARs EXPIRÉS :
  • 040700Z 24004KT CAVOK 18/11 Q1010
  • 040600Z 27005KT CAVOK 18/12 Q1010

TAF TAF SBFL
Valide du 04 à 06h jusqu'au 05 à 06h UTC


040300Z 0406/0506 18009KT 9999 BKN020 TN23/0408Z TX29/0417Z
BECMG 0410/0412 22008KT SCT020 RMK PEA



MET'MAP, la Météo Aéronautique d'un coup d'oeil ! - Copyright ORBIFLY Décembre 2007 - Disclaimer

ORBIFLY MET'MAP TEAM :

Programmation & Développement : Alexandra Zaïnal
Sur une idée originale de : Baudouin d'Aumeries
Assistance à la programmation : Marc-Olivier Méhu
Soutien technique & logistique : Manuel Goepfert

Contact : metmap@orbifly.com




SOURCES & CREDITS :

   NOAA       Earth
Advisory